createdAt,value
2017-10-10T00:02:02.845Z,9.5
2017-10-10T00:07:03.478Z,9.5
2017-10-10T00:12:03.436Z,9.5
2017-10-10T00:17:03.084Z,9.5
2017-10-10T00:22:03.112Z,9.6
2017-10-10T00:27:02.854Z,9.7
2017-10-10T00:32:03.447Z,9.8
2017-10-10T00:37:03.192Z,9.7
2017-10-10T00:42:02.763Z,9.8
2017-10-10T00:47:03.499Z,9.6
2017-10-10T00:52:02.767Z,9.7
2017-10-10T00:57:03.522Z,9.7
2017-10-10T01:02:03.217Z,9.7
2017-10-10T01:07:02.911Z,9.7
2017-10-10T01:12:02.884Z,9.7
2017-10-10T01:17:03.518Z,9.6
2017-10-10T01:22:03.404Z,9.6
2017-10-10T01:27:03.183Z,9.5
2017-10-10T01:32:02.924Z,9.5
2017-10-10T01:37:03.158Z,9.5
2017-10-10T01:42:02.690Z,9.5
2017-10-10T01:47:03.343Z,9.5
2017-10-10T01:52:02.830Z,9.5
2017-10-10T01:57:03.574Z,9.4
2017-10-10T02:02:03.240Z,9.3
2017-10-10T02:07:03.165Z,9.2
2017-10-10T02:12:02.902Z,9.3
2017-10-10T02:17:03.646Z,9.4
2017-10-10T02:22:03.646Z,9.4
2017-10-10T02:27:03.365Z,9.4
2017-10-10T02:32:03.117Z,9.5
2017-10-10T02:37:02.786Z,9.6
2017-10-10T02:42:02.720Z,9.7
2017-10-10T02:47:03.027Z,9.6
2017-10-10T02:52:03.133Z,9.5
2017-10-10T02:57:03.182Z,9.5
2017-10-10T03:02:03.308Z,9.3
2017-10-10T03:07:03.499Z,9.4
2017-10-10T03:12:02.838Z,9.4
2017-10-10T03:17:03.318Z,9.5
2017-10-10T03:22:03.136Z,9.4
2017-10-10T03:27:03.282Z,9.4
2017-10-10T03:32:03.362Z,9.4
2017-10-10T03:37:03.465Z,9.5
2017-10-10T03:42:03.555Z,9.4
2017-10-10T03:47:02.747Z,9.5
2017-10-10T03:52:02.881Z,9.4
2017-10-10T03:57:02.969Z,9.4
2017-10-10T04:02:03.110Z,9.3
2017-10-10T04:07:03.329Z,9.3
2017-10-10T04:12:03.509Z,9.2
2017-10-10T04:17:03.727Z,9.1
2017-10-10T04:22:02.966Z,9.1
2017-10-10T04:27:03.078Z,9.2
2017-10-10T04:32:03.100Z,9.2
2017-10-10T04:37:03.257Z,9.3
2017-10-10T04:42:03.277Z,9.3
2017-10-10T04:47:03.316Z,9.3
2017-10-10T04:52:03.424Z,9.3
2017-10-10T04:57:03.425Z,9.3
2017-10-10T05:02:03.805Z,9.5
2017-10-10T05:07:02.924Z,9.4
2017-10-10T05:12:03.209Z,9.6
2017-10-10T05:17:16.053Z,9.6
2017-10-10T05:22:03.564Z,9.7
2017-10-10T05:27:02.833Z,9.8
2017-10-10T05:32:23.098Z,9.9
2017-10-10T05:37:02.673Z,9.9
2017-10-10T05:42:02.698Z,10.0
2017-10-10T05:47:13.581Z,10.0
2017-10-10T05:52:03.501Z,10.0
2017-10-10T05:57:02.779Z,10.0
2017-10-10T06:02:13.481Z,10.1
2017-10-10T06:07:03.177Z,10.1
2017-10-10T06:12:03.462Z,10.3
2017-10-10T06:17:14.117Z,10.3
2017-10-10T06:22:02.936Z,10.5
2017-10-10T06:27:03.166Z,10.5
2017-10-10T06:32:13.715Z,10.6
2017-10-10T06:37:03.073Z,10.8
2017-10-10T06:42:03.283Z,11.0
2017-10-10T06:47:18.145Z,10.9
2017-10-10T06:52:03.391Z,11.1
2017-10-10T06:57:02.633Z,11.3
2017-10-10T07:02:13.232Z,11.5
2017-10-10T07:07:03.329Z,11.5
2017-10-10T07:12:03.622Z,11.8
2017-10-10T07:17:13.322Z,11.9
2017-10-10T07:22:03.228Z,11.9
2017-10-10T07:27:03.537Z,11.9
2017-10-10T07:32:12.939Z,12.0
2017-10-10T07:37:02.931Z,12.1
2017-10-10T07:42:03.168Z,12.2
2017-10-10T07:47:13.659Z,12.4
2017-10-10T07:52:02.946Z,12.5
2017-10-10T07:57:03.213Z,12.4
2017-10-10T08:02:13.779Z,12.5
2017-10-10T08:07:02.760Z,12.5
2017-10-10T08:12:03.119Z,12.8
2017-10-10T08:17:23.335Z,13.2
2017-10-10T08:22:03.460Z,13.3
2017-10-10T08:27:02.743Z,13.3
2017-10-10T08:32:13.355Z,13.3
2017-10-10T08:37:03.518Z,13.4
2017-10-10T08:42:02.647Z,13.4
2017-10-10T08:47:17.469Z,13.9
2017-10-10T08:52:03.161Z,13.9
2017-10-10T08:57:03.458Z,14.2
2017-10-10T09:02:16.825Z,14.9
2017-10-10T09:07:02.829Z,15.1
2017-10-10T09:12:03.204Z,15.1
2017-10-10T09:17:13.847Z,15.2
2017-10-10T09:22:03.105Z,15.2
2017-10-10T09:27:03.340Z,15.1
2017-10-10T09:32:13.142Z,14.6
2017-10-10T09:37:03.575Z,14.6
2017-10-10T09:42:02.887Z,14.8
2017-10-10T09:47:14.050Z,15.2
2017-10-10T09:52:03.230Z,15.1
2017-10-10T09:57:03.096Z,15.1
2017-10-10T10:02:17.326Z,15.0
2017-10-10T10:07:03.590Z,15.4
2017-10-10T10:12:02.905Z,15.7
2017-10-10T10:17:13.818Z,15.7
2017-10-10T10:22:02.807Z,15.9
2017-10-10T10:27:03.035Z,15.9
2017-10-10T10:32:13.626Z,15.7
2017-10-10T10:37:03.444Z,15.6
2017-10-10T10:42:02.617Z,15.4
2017-10-10T10:47:13.099Z,15.2
2017-10-10T10:52:02.967Z,15.2
2017-10-10T10:57:03.307Z,15.2
2017-10-10T11:02:17.022Z,15.1
2017-10-10T11:07:02.962Z,14.8
2017-10-10T11:12:03.336Z,14.7
2017-10-10T11:17:14.002Z,14.6
2017-10-10T11:22:03.305Z,14.6
2017-10-10T11:27:03.551Z,14.5
2017-10-10T11:32:13.077Z,14.8
2017-10-10T11:37:03.396Z,15.1
2017-10-10T11:42:02.749Z,15.3
2017-10-10T11:47:13.797Z,15.3
2017-10-10T11:52:03.413Z,15.2
2017-10-10T11:57:02.751Z,15.2
2017-10-10T12:02:22.885Z,14.9
2017-10-10T12:07:02.803Z,15.0
2017-10-10T12:12:03.161Z,15.0
2017-10-10T12:17:18.216Z,15.1
2017-10-10T12:22:03.042Z,15.3
2017-10-10T12:27:03.186Z,15.3
2017-10-10T12:32:13.873Z,15.4
2017-10-10T12:37:02.894Z,15.6
2017-10-10T12:42:03.431Z,15.6
2017-10-10T12:47:13.173Z,15.6
2017-10-10T12:52:03.287Z,15.7
2017-10-10T12:57:03.493Z,15.7
2017-10-10T13:02:13.126Z,16.2
2017-10-10T13:07:03.415Z,16.2
2017-10-10T13:12:02.765Z,16.2
2017-10-10T13:17:13.459Z,16.0
2017-10-10T13:22:03.166Z,16.0
2017-10-10T13:27:03.519Z,16.0
2017-10-10T13:32:12.880Z,15.6
2017-10-10T13:37:02.652Z,15.6
2017-10-10T13:42:02.903Z,15.8
2017-10-10T13:47:17.077Z,15.7
2017-10-10T13:52:03.407Z,15.7
2017-10-10T13:57:03.017Z,15.6
2017-10-10T14:02:13.539Z,15.4
2017-10-10T14:07:02.842Z,15.3
2017-10-10T14:12:03.278Z,15.5
2017-10-10T14:17:13.508Z,15.4
2017-10-10T14:22:02.911Z,15.4
2017-10-10T14:27:03.140Z,15.7
2017-10-10T14:32:13.153Z,16.1
2017-10-10T14:37:02.959Z,16.6
2017-10-10T14:42:03.549Z,17.4
2017-10-10T14:47:12.953Z,17.4
2017-10-10T14:52:03.243Z,18.7
2017-10-10T14:57:03.427Z,19.8
2017-10-10T15:02:12.956Z,18.3
2017-10-10T15:07:03.081Z,18.6
2017-10-10T15:12:03.399Z,17.9
2017-10-10T15:17:17.911Z,17.9
2017-10-10T15:22:03.114Z,16.6
2017-10-10T15:27:03.379Z,16.2
2017-10-10T15:32:17.519Z,15.8
2017-10-10T15:37:03.324Z,15.8
2017-10-10T15:42:03.440Z,15.6
2017-10-10T15:47:11.857Z,15.4
2017-10-10T15:52:03.078Z,15.4
2017-10-10T15:57:03.340Z,15.1
2017-10-10T16:02:13.883Z,15.1
2017-10-10T16:07:03.084Z,15.0
2017-10-10T16:12:03.416Z,15.1
2017-10-10T16:17:23.421Z,15.1
2017-10-10T16:22:03.090Z,14.8
2017-10-10T16:27:03.364Z,14.8
2017-10-10T16:32:16.080Z,14.6
2017-10-10T16:37:03.072Z,14.6
2017-10-10T16:42:03.459Z,14.6
2017-10-10T16:47:13.378Z,14.4
2017-10-10T16:52:03.084Z,14.4
2017-10-10T16:57:03.557Z,14.3
2017-10-10T17:02:11.232Z,14.3
2017-10-10T17:07:02.900Z,14.2
2017-10-10T17:12:03.251Z,14.2
2017-10-10T17:17:10.983Z,14.2
2017-10-10T17:22:03.596Z,14.2
2017-10-10T17:27:02.825Z,14.3
2017-10-10T17:32:03.307Z,14.2
2017-10-10T17:37:03.123Z,14.2
2017-10-10T17:42:03.205Z,14.2
2017-10-10T17:47:03.260Z,14.1
2017-10-10T17:52:03.472Z,14.1
2017-10-10T17:57:03.474Z,14.1
2017-10-10T18:02:03.041Z,13.9
2017-10-10T18:07:02.999Z,13.9
2017-10-10T18:12:03.174Z,13.8
2017-10-10T18:17:03.485Z,13.8
2017-10-10T18:22:03.525Z,13.8
2017-10-10T18:27:03.542Z,13.8
2017-10-10T18:32:03.701Z,13.8
2017-10-10T18:37:02.964Z,13.8
2017-10-10T18:42:03.099Z,13.8
2017-10-10T18:47:03.201Z,13.8
2017-10-10T18:52:03.250Z,13.8
2017-10-10T18:57:03.284Z,13.8
2017-10-10T19:02:03.394Z,13.9
2017-10-10T19:07:03.622Z,13.8
2017-10-10T19:12:02.922Z,13.8
2017-10-10T19:17:03.310Z,13.9
2017-10-10T19:22:03.186Z,13.9
2017-10-10T19:27:03.300Z,13.9
2017-10-10T19:32:03.343Z,13.9
2017-10-10T19:37:03.497Z,13.9
2017-10-10T19:42:03.563Z,13.8
2017-10-10T19:47:03.101Z,13.8
2017-10-10T19:52:02.891Z,13.8
2017-10-10T19:57:03.058Z,13.8
2017-10-10T20:02:03.249Z,13.8
2017-10-10T20:07:03.264Z,13.7
2017-10-10T20:12:03.568Z,13.6
2017-10-10T20:17:03.723Z,13.6
2017-10-10T20:22:02.925Z,13.5
2017-10-10T20:27:03.164Z,13.5
2017-10-10T20:32:03.278Z,13.5
2017-10-10T20:37:03.327Z,13.5
2017-10-10T20:42:03.373Z,13.7
2017-10-10T20:47:03.511Z,13.7
2017-10-10T20:52:02.672Z,13.7
2017-10-10T20:57:02.802Z,13.6
2017-10-10T21:02:02.972Z,13.7
2017-10-10T21:07:03.183Z,13.6
2017-10-10T21:12:03.340Z,13.5
2017-10-10T21:17:03.520Z,13.5
2017-10-10T21:22:03.598Z,13.4
2017-10-10T21:27:03.705Z,13.5
2017-10-10T21:32:02.849Z,13.5
2017-10-10T21:37:03.067Z,13.5
2017-10-10T21:42:03.194Z,13.5
2017-10-10T21:47:03.421Z,13.5
2017-10-10T21:52:03.286Z,13.5
2017-10-10T21:57:03.384Z,13.5
2017-10-10T22:02:02.774Z,13.6
2017-10-10T22:07:03.136Z,13.5
2017-10-10T22:12:03.388Z,13.6
2017-10-10T22:22:03.457Z,13.5
2017-10-10T22:27:02.769Z,13.5
2017-10-10T22:32:03.698Z,13.5
2017-10-10T22:37:03.030Z,13.4
2017-10-10T22:42:02.809Z,13.4
2017-10-10T22:47:05.491Z,13.5
2017-10-10T22:52:03.011Z,13.6
2017-10-10T22:57:02.785Z,13.6
2017-10-10T23:02:03.229Z,13.7
2017-10-10T23:07:03.026Z,13.7
2017-10-10T23:12:04.009Z,13.8
2017-10-10T23:17:03.240Z,13.8
2017-10-10T23:22:03.567Z,13.9
2017-10-10T23:27:03.235Z,13.9
2017-10-10T23:32:02.903Z,13.8
2017-10-10T23:37:03.433Z,13.8
2017-10-10T23:42:03.146Z,13.7
2017-10-10T23:47:02.986Z,13.7
2017-10-10T23:52:03.482Z,13.7
2017-10-10T23:57:03.165Z,13.7
